sensor_id;sensor_type;location;lat;lon;timestamp;P1;durP1;ratioP1;P2;durP2;ratioP2
14092;SDS011;7123;49.468;10.992;2023-07-08T00:01:27;6.00;;;5.50;;
14092;SDS011;7123;49.468;10.992;2023-07-08T00:03:54;5.47;;;4.97;;
14092;SDS011;7123;49.468;10.992;2023-07-08T00:06:22;6.10;;;5.55;;
14092;SDS011;7123;49.468;10.992;2023-07-08T00:08:51;5.82;;;5.22;;
14092;SDS011;7123;49.468;10.992;2023-07-08T00:11:18;8.93;;;5.40;;
14092;SDS011;7123;49.468;10.992;2023-07-08T00:13:45;5.68;;;5.28;;
14092;SDS011;7123;49.468;10.992;2023-07-08T00:16:13;5.95;;;5.45;;
14092;SDS011;7123;49.468;10.992;2023-07-08T00:18:43;8.10;;;5.78;;
14092;SDS011;7123;49.468;10.992;2023-07-08T00:21:10;5.65;;;5.15;;
14092;SDS011;7123;49.468;10.992;2023-07-08T00:23:45;6.10;;;5.53;;
14092;SDS011;7123;49.468;10.992;2023-07-08T00:26:23;5.60;;;5.10;;
14092;SDS011;7123;49.468;10.992;2023-07-08T00:28:52;5.75;;;5.00;;
14092;SDS011;7123;49.468;10.992;2023-07-08T00:31:19;6.80;;;5.35;;
14092;SDS011;7123;49.468;10.992;2023-07-08T00:33:51;6.47;;;5.35;;
14092;SDS011;7123;49.468;10.992;2023-07-08T00:36:23;6.80;;;5.32;;
14092;SDS011;7123;49.468;10.992;2023-07-08T00:38:52;5.93;;;5.30;;
14092;SDS011;7123;49.468;10.992;2023-07-08T00:41:23;7.53;;;5.43;;
14092;SDS011;7123;49.468;10.992;2023-07-08T00:43:55;5.22;;;4.82;;
14092;SDS011;7123;49.468;10.992;2023-07-08T00:48:55;4.78;;;4.38;;
14092;SDS011;7123;49.468;10.992;2023-07-08T00:51:35;5.85;;;5.30;;
14092;SDS011;7123;49.468;10.992;2023-07-08T00:54:16;5.55;;;4.93;;
14092;SDS011;7123;49.468;10.992;2023-07-08T00:56:49;5.63;;;5.10;;
14092;SDS011;7123;49.468;10.992;2023-07-08T00:59:29;5.78;;;5.22;;
14092;SDS011;7123;49.468;10.992;2023-07-08T01:02:01;7.28;;;4.57;;
14092;SDS011;7123;49.468;10.992;2023-07-08T01:04:32;6.07;;;5.10;;
14092;SDS011;7123;49.468;10.992;2023-07-08T01:07:03;5.10;;;4.70;;
14092;SDS011;7123;49.468;10.992;2023-07-08T01:09:31;5.60;;;4.82;;
14092;SDS011;7123;49.468;10.992;2023-07-08T01:12:01;6.40;;;4.90;;
14092;SDS011;7123;49.468;10.992;2023-07-08T01:14:31;5.28;;;4.78;;
14092;SDS011;7123;49.468;10.992;2023-07-08T01:16:59;6.55;;;4.80;;
14092;SDS011;7123;49.468;10.992;2023-07-08T01:19:26;5.40;;;4.90;;
14092;SDS011;7123;49.468;10.992;2023-07-08T01:22:04;9.77;;;4.68;;
14092;SDS011;7123;49.468;10.992;2023-07-08T01:24:32;7.38;;;4.82;;
14092;SDS011;7123;49.468;10.992;2023-07-08T01:27:02;5.57;;;5.07;;
14092;SDS011;7123;49.468;10.992;2023-07-08T01:29:31;5.80;;;4.85;;
14092;SDS011;7123;49.468;10.992;2023-07-08T01:31:58;5.75;;;5.25;;
14092;SDS011;7123;49.468;10.992;2023-07-08T01:34:29;6.40;;;5.72;;
14092;SDS011;7123;49.468;10.992;2023-07-08T01:36:57;5.65;;;5.15;;
14092;SDS011;7123;49.468;10.992;2023-07-08T01:39:26;5.55;;;5.05;;
14092;SDS011;7123;49.468;10.992;2023-07-08T01:41:56;6.30;;;5.60;;
14092;SDS011;7123;49.468;10.992;2023-07-08T01:44:27;6.05;;;5.53;;
14092;SDS011;7123;49.468;10.992;2023-07-08T01:46:57;6.38;;;5.70;;
14092;SDS011;7123;49.468;10.992;2023-07-08T01:49:27;5.93;;;5.43;;
14092;SDS011;7123;49.468;10.992;2023-07-08T01:51:54;5.68;;;5.20;;
14092;SDS011;7123;49.468;10.992;2023-07-08T01:54:22;6.15;;;5.20;;
14092;SDS011;7123;49.468;10.992;2023-07-08T01:56:53;6.63;;;5.90;;
14092;SDS011;7123;49.468;10.992;2023-07-08T01:59:21;7.05;;;5.78;;
14092;SDS011;7123;49.468;10.992;2023-07-08T02:01:48;6.88;;;5.50;;
14092;SDS011;7123;49.468;10.992;2023-07-08T02:04:20;5.80;;;5.25;;
14092;SDS011;7123;49.468;10.992;2023-07-08T02:06:52;8.15;;;5.80;;
14092;SDS011;7123;49.468;10.992;2023-07-08T02:09:19;6.55;;;5.90;;
14092;SDS011;7123;49.468;10.992;2023-07-08T02:11:47;5.78;;;5.28;;
14092;SDS011;7123;49.468;10.992;2023-07-08T02:14:14;5.78;;;5.28;;
14092;SDS011;7123;49.468;10.992;2023-07-08T02:16:40;7.43;;;5.30;;
14092;SDS011;7123;49.468;10.992;2023-07-08T02:19:08;7.10;;;5.50;;
14092;SDS011;7123;49.468;10.992;2023-07-08T02:21:36;6.97;;;5.95;;
14092;SDS011;7123;49.468;10.992;2023-07-08T02:24:02;6.93;;;6.22;;
14092;SDS011;7123;49.468;10.992;2023-07-08T02:26:29;5.90;;;5.30;;
14092;SDS011;7123;49.468;10.992;2023-07-08T02:28:59;6.32;;;5.72;;
14092;SDS011;7123;49.468;10.992;2023-07-08T02:31:26;6.70;;;5.90;;
14092;SDS011;7123;49.468;10.992;2023-07-08T02:33:54;8.63;;;5.88;;
14092;SDS011;7123;49.468;10.992;2023-07-08T02:36:21;6.00;;;5.50;;
14092;SDS011;7123;49.468;10.992;2023-07-08T02:38:48;7.93;;;6.00;;
14092;SDS011;7123;49.468;10.992;2023-07-08T02:41:14;9.52;;;5.57;;
14092;SDS011;7123;49.468;10.992;2023-07-08T02:43:41;8.10;;;5.50;;
14092;SDS011;7123;49.468;10.992;2023-07-08T02:46:08;7.00;;;5.82;;
14092;SDS011;7123;49.468;10.992;2023-07-08T02:48:35;6.53;;;5.93;;
14092;SDS011;7123;49.468;10.992;2023-07-08T02:51:02;6.38;;;5.78;;
14092;SDS011;7123;49.468;10.992;2023-07-08T02:53:30;7.50;;;5.75;;
14092;SDS011;7123;49.468;10.992;2023-07-08T02:55:57;6.32;;;5.80;;
14092;SDS011;7123;49.468;10.992;2023-07-08T02:58:24;5.93;;;5.38;;
14092;SDS011;7123;49.468;10.992;2023-07-08T03:00:51;6.97;;;5.60;;
14092;SDS011;7123;49.468;10.992;2023-07-08T03:03:19;5.63;;;5.13;;
14092;SDS011;7123;49.468;10.992;2023-07-08T03:05:56;7.45;;;5.75;;
14092;SDS011;7123;49.468;10.992;2023-07-08T03:08:27;6.53;;;5.63;;
14092;SDS011;7123;49.468;10.992;2023-07-08T03:10:59;6.72;;;5.63;;
14092;SDS011;7123;49.468;10.992;2023-07-08T03:13:27;5.78;;;5.35;;
14092;SDS011;7123;49.468;10.992;2023-07-08T03:15:56;6.20;;;5.47;;
14092;SDS011;7123;49.468;10.992;2023-07-08T03:18:25;6.57;;;5.82;;
14092;SDS011;7123;49.468;10.992;2023-07-08T03:20:53;6.28;;;5.72;;
14092;SDS011;7123;49.468;10.992;2023-07-08T03:23:22;8.18;;;5.82;;
14092;SDS011;7123;49.468;10.992;2023-07-08T03:25:50;5.97;;;5.47;;
14092;SDS011;7123;49.468;10.992;2023-07-08T03:28:18;6.10;;;5.50;;
14092;SDS011;7123;49.468;10.992;2023-07-08T03:30:45;6.50;;;5.88;;
14092;SDS011;7123;49.468;10.992;2023-07-08T03:33:18;6.55;;;5.93;;
14092;SDS011;7123;49.468;10.992;2023-07-08T03:35:45;6.25;;;5.65;;
14092;SDS011;7123;49.468;10.992;2023-07-08T03:38:12;5.80;;;5.30;;
14092;SDS011;7123;49.468;10.992;2023-07-08T03:40:39;6.97;;;5.78;;
14092;SDS011;7123;49.468;10.992;2023-07-08T03:43:06;6.18;;;5.10;;
14092;SDS011;7123;49.468;10.992;2023-07-08T03:45:32;5.65;;;5.15;;
14092;SDS011;7123;49.468;10.992;2023-07-08T03:47:59;7.03;;;6.35;;
14092;SDS011;7123;49.468;10.992;2023-07-08T03:50:26;6.65;;;6.05;;
14092;SDS011;7123;49.468;10.992;2023-07-08T03:52:54;6.40;;;5.82;;
14092;SDS011;7123;49.468;10.992;2023-07-08T03:55:21;6.00;;;5.40;;
14092;SDS011;7123;49.468;10.992;2023-07-08T03:57:49;6.88;;;5.88;;
14092;SDS011;7123;49.468;10.992;2023-07-08T04:00:16;6.85;;;6.07;;
14092;SDS011;7123;49.468;10.992;2023-07-08T04:02:45;6.95;;;6.25;;
14092;SDS011;7123;49.468;10.992;2023-07-08T04:05:16;6.82;;;6.15;;
14092;SDS011;7123;49.468;10.992;2023-07-08T04:07:45;6.30;;;5.78;;
14092;SDS011;7123;49.468;10.992;2023-07-08T04:10:12;6.57;;;5.50;;
14092;SDS011;7123;49.468;10.992;2023-07-08T04:12:39;6.53;;;5.93;;
14092;SDS011;7123;49.468;10.992;2023-07-08T04:15:10;7.90;;;5.80;;
14092;SDS011;7123;49.468;10.992;2023-07-08T04:17:44;6.43;;;5.80;;
14092;SDS011;7123;49.468;10.992;2023-07-08T04:20:15;7.22;;;6.13;;
14092;SDS011;7123;49.468;10.992;2023-07-08T04:22:44;6.43;;;5.82;;
14092;SDS011;7123;49.468;10.992;2023-07-08T04:25:12;6.93;;;6.30;;
14092;SDS011;7123;49.468;10.992;2023-07-08T04:27:40;7.82;;;5.78;;
14092;SDS011;7123;49.468;10.992;2023-07-08T04:30:09;6.85;;;5.63;;
14092;SDS011;7123;49.468;10.992;2023-07-08T04:32:44;8.65;;;6.35;;
14092;SDS011;7123;49.468;10.992;2023-07-08T04:35:10;5.88;;;5.38;;
14092;SDS011;7123;49.468;10.992;2023-07-08T04:37:37;5.95;;;5.45;;
14092;SDS011;7123;49.468;10.992;2023-07-08T04:40:04;6.40;;;5.60;;
14092;SDS011;7123;49.468;10.992;2023-07-08T04:42:34;9.75;;;6.22;;
14092;SDS011;7123;49.468;10.992;2023-07-08T04:45:03;7.75;;;5.15;;
14092;SDS011;7123;49.468;10.992;2023-07-08T04:47:32;9.80;;;5.75;;
14092;SDS011;7123;49.468;10.992;2023-07-08T04:50:00;6.30;;;5.70;;
14092;SDS011;7123;49.468;10.992;2023-07-08T04:52:27;6.18;;;5.57;;
14092;SDS011;7123;49.468;10.992;2023-07-08T04:54:53;6.18;;;5.65;;
14092;SDS011;7123;49.468;10.992;2023-07-08T04:57:20;10.27;;;5.63;;
14092;SDS011;7123;49.468;10.992;2023-07-08T04:59:47;7.63;;;5.75;;
14092;SDS011;7123;49.468;10.992;2023-07-08T05:02:14;6.20;;;5.60;;
14092;SDS011;7123;49.468;10.992;2023-07-08T05:04:41;7.43;;;5.75;;
14092;SDS011;7123;49.468;10.992;2023-07-08T05:07:08;5.90;;;5.35;;
14092;SDS011;7123;49.468;10.992;2023-07-08T05:09:35;7.68;;;5.72;;
14092;SDS011;7123;49.468;10.992;2023-07-08T05:12:02;6.72;;;5.40;;
14092;SDS011;7123;49.468;10.992;2023-07-08T05:14:29;6.65;;;5.97;;
14092;SDS011;7123;49.468;10.992;2023-07-08T05:16:56;10.20;;;6.45;;
14092;SDS011;7123;49.468;10.992;2023-07-08T05:19:23;7.13;;;6.45;;
14092;SDS011;7123;49.468;10.992;2023-07-08T05:21:50;8.18;;;7.32;;
14092;SDS011;7123;49.468;10.992;2023-07-08T05:24:17;10.65;;;8.77;;
14092;SDS011;7123;49.468;10.992;2023-07-08T05:26:43;11.23;;;8.77;;
14092;SDS011;7123;49.468;10.992;2023-07-08T05:29:10;9.27;;;8.38;;
14092;SDS011;7123;49.468;10.992;2023-07-08T05:31:37;9.07;;;8.15;;
14092;SDS011;7123;49.468;10.992;2023-07-08T05:34:13;14.70;;;9.20;;
14092;SDS011;7123;49.468;10.992;2023-07-08T05:36:40;11.32;;;8.48;;
14092;SDS011;7123;49.468;10.992;2023-07-08T05:39:07;8.98;;;7.85;;
14092;SDS011;7123;49.468;10.992;2023-07-08T05:41:34;11.13;;;7.68;;
14092;SDS011;7123;49.468;10.992;2023-07-08T05:44:01;8.15;;;7.35;;
14092;SDS011;7123;49.468;10.992;2023-07-08T05:46:28;9.75;;;7.82;;
14092;SDS011;7123;49.468;10.992;2023-07-08T05:48:54;8.43;;;7.53;;
14092;SDS011;7123;49.468;10.992;2023-07-08T05:51:24;9.60;;;7.70;;
14092;SDS011;7123;49.468;10.992;2023-07-08T05:53:50;13.82;;;7.88;;
14092;SDS011;7123;49.468;10.992;2023-07-08T05:56:17;8.23;;;7.43;;
14092;SDS011;7123;49.468;10.992;2023-07-08T05:58:44;8.10;;;7.32;;
14092;SDS011;7123;49.468;10.992;2023-07-08T06:01:11;9.18;;;7.85;;
14092;SDS011;7123;49.468;10.992;2023-07-08T06:03:38;9.85;;;7.93;;
14092;SDS011;7123;49.468;10.992;2023-07-08T06:06:05;10.60;;;7.55;;
14092;SDS011;7123;49.468;10.992;2023-07-08T06:08:34;11.13;;;6.97;;
14092;SDS011;7123;49.468;10.992;2023-07-08T06:11:01;8.50;;;6.80;;
14092;SDS011;7123;49.468;10.992;2023-07-08T06:13:28;7.60;;;6.30;;
14092;SDS011;7123;49.468;10.992;2023-07-08T06:15:55;6.47;;;5.85;;
14092;SDS011;7123;49.468;10.992;2023-07-08T06:18:22;9.30;;;6.15;;
14092;SDS011;7123;49.468;10.992;2023-07-08T06:20:55;7.85;;;5.55;;
14092;SDS011;7123;49.468;10.992;2023-07-08T06:23:25;10.32;;;5.97;;
14092;SDS011;7123;49.468;10.992;2023-07-08T06:25:52;7.40;;;5.78;;
14092;SDS011;7123;49.468;10.992;2023-07-08T06:28:19;6.43;;;5.78;;
14092;SDS011;7123;49.468;10.992;2023-07-08T06:30:46;5.88;;;5.35;;
14092;SDS011;7123;49.468;10.992;2023-07-08T06:33:13;12.65;;;5.32;;
14092;SDS011;7123;49.468;10.992;2023-07-08T06:35:40;5.88;;;5.28;;
14092;SDS011;7123;49.468;10.992;2023-07-08T06:38:09;7.20;;;5.25;;
14092;SDS011;7123;49.468;10.992;2023-07-08T06:40:36;7.68;;;5.05;;
14092;SDS011;7123;49.468;10.992;2023-07-08T06:43:03;5.82;;;4.90;;
14092;SDS011;7123;49.468;10.992;2023-07-08T06:45:30;4.97;;;4.40;;
14092;SDS011;7123;49.468;10.992;2023-07-08T06:47:57;5.70;;;4.72;;
14092;SDS011;7123;49.468;10.992;2023-07-08T06:50:24;5.35;;;4.85;;
14092;SDS011;7123;49.468;10.992;2023-07-08T06:52:50;4.80;;;4.40;;
14092;SDS011;7123;49.468;10.992;2023-07-08T06:55:17;5.05;;;4.55;;
14092;SDS011;7123;49.468;10.992;2023-07-08T06:57:44;5.97;;;4.50;;
14092;SDS011;7123;49.468;10.992;2023-07-08T07:00:11;7.03;;;4.40;;
14092;SDS011;7123;49.468;10.992;2023-07-08T07:02:38;5.15;;;4.72;;
14092;SDS011;7123;49.468;10.992;2023-07-08T07:05:05;5.28;;;4.50;;
14092;SDS011;7123;49.468;10.992;2023-07-08T07:07:32;9.15;;;4.55;;
14092;SDS011;7123;49.468;10.992;2023-07-08T07:10:00;4.85;;;4.45;;
14092;SDS011;7123;49.468;10.992;2023-07-08T07:12:29;6.97;;;4.50;;
14092;SDS011;7123;49.468;10.992;2023-07-08T07:14:56;4.68;;;4.28;;
14092;SDS011;7123;49.468;10.992;2023-07-08T07:17:23;4.95;;;4.60;;
14092;SDS011;7123;49.468;10.992;2023-07-08T07:19:51;5.18;;;4.47;;
14092;SDS011;7123;49.468;10.992;2023-07-08T07:22:17;4.60;;;4.20;;
14092;SDS011;7123;49.468;10.992;2023-07-08T07:24:44;4.70;;;4.30;;
14092;SDS011;7123;49.468;10.992;2023-07-08T07:27:11;6.22;;;4.78;;
14092;SDS011;7123;49.468;10.992;2023-07-08T07:29:42;5.20;;;4.70;;
14092;SDS011;7123;49.468;10.992;2023-07-08T07:32:11;7.72;;;4.55;;
14092;SDS011;7123;49.468;10.992;2023-07-08T07:34:39;6.90;;;4.25;;
14092;SDS011;7123;49.468;10.992;2023-07-08T07:37:10;4.65;;;4.25;;
14092;SDS011;7123;49.468;10.992;2023-07-08T07:39:38;8.48;;;4.53;;
14092;SDS011;7123;49.468;10.992;2023-07-08T07:42:06;5.75;;;4.30;;
14092;SDS011;7123;49.468;10.992;2023-07-08T07:44:33;4.00;;;3.70;;
14092;SDS011;7123;49.468;10.992;2023-07-08T07:47:01;6.82;;;4.47;;
14092;SDS011;7123;49.468;10.992;2023-07-08T07:49:29;4.65;;;4.25;;
14092;SDS011;7123;49.468;10.992;2023-07-08T07:51:56;4.70;;;4.40;;
14092;SDS011;7123;49.468;10.992;2023-07-08T07:54:23;6.88;;;4.28;;
14092;SDS011;7123;49.468;10.992;2023-07-08T07:56:49;5.20;;;4.68;;
14092;SDS011;7123;49.468;10.992;2023-07-08T07:59:17;5.47;;;3.80;;
14092;SDS011;7123;49.468;10.992;2023-07-08T08:01:43;5.28;;;4.80;;
14092;SDS011;7123;49.468;10.992;2023-07-08T08:04:10;5.07;;;4.22;;
14092;SDS011;7123;49.468;10.992;2023-07-08T08:06:37;4.85;;;4.38;;
14092;SDS011;7123;49.468;10.992;2023-07-08T08:09:05;4.95;;;4.45;;
14092;SDS011;7123;49.468;10.992;2023-07-08T08:11:32;4.65;;;4.25;;
14092;SDS011;7123;49.468;10.992;2023-07-08T08:14:00;8.63;;;4.20;;
14092;SDS011;7123;49.468;10.992;2023-07-08T08:16:27;5.40;;;4.20;;
14092;SDS011;7123;49.468;10.992;2023-07-08T08:18:54;4.65;;;4.25;;
14092;SDS011;7123;49.468;10.992;2023-07-08T08:21:20;4.72;;;4.32;;
14092;SDS011;7123;49.468;10.992;2023-07-08T08:23:47;5.88;;;4.00;;
14092;SDS011;7123;49.468;10.992;2023-07-08T08:26:14;4.68;;;4.20;;
14092;SDS011;7123;49.468;10.992;2023-07-08T08:28:41;4.47;;;4.07;;
14092;SDS011;7123;49.468;10.992;2023-07-08T08:31:08;4.97;;;4.50;;
14092;SDS011;7123;49.468;10.992;2023-07-08T08:33:34;4.63;;;4.20;;
14092;SDS011;7123;49.468;10.992;2023-07-08T08:36:01;5.28;;;4.13;;
14092;SDS011;7123;49.468;10.992;2023-07-08T08:38:29;4.50;;;4.10;;
14092;SDS011;7123;49.468;10.992;2023-07-08T08:40:56;5.20;;;3.92;;
14092;SDS011;7123;49.468;10.992;2023-07-08T08:43:23;4.00;;;3.60;;
14092;SDS011;7123;49.468;10.992;2023-07-08T08:46:06;4.63;;;4.18;;
14092;SDS011;7123;49.468;10.992;2023-07-08T08:48:45;4.30;;;3.90;;
14092;SDS011;7123;49.468;10.992;2023-07-08T08:51:36;5.45;;;3.70;;
14092;SDS011;7123;49.468;10.992;2023-07-08T08:54:03;4.45;;;4.05;;
14092;SDS011;7123;49.468;10.992;2023-07-08T08:56:46;4.50;;;4.10;;
14092;SDS011;7123;49.468;10.992;2023-07-08T09:01:44;4.28;;;3.97;;
14092;SDS011;7123;49.468;10.992;2023-07-08T09:04:17;4.55;;;4.10;;
14092;SDS011;7123;49.468;10.992;2023-07-08T09:06:49;4.25;;;3.90;;
14092;SDS011;7123;49.468;10.992;2023-07-08T09:09:30;4.25;;;3.92;;
14092;SDS011;7123;49.468;10.992;2023-07-08T09:12:04;4.55;;;4.10;;
14092;SDS011;7123;49.468;10.992;2023-07-08T09:14:35;4.65;;;4.18;;
14092;SDS011;7123;49.468;10.992;2023-07-08T09:17:14;4.18;;;3.85;;
14092;SDS011;7123;49.468;10.992;2023-07-08T09:25:26;4.75;;;3.95;;
14092;SDS011;7123;49.468;10.992;2023-07-08T09:28:03;5.07;;;4.55;;
14092;SDS011;7123;49.468;10.992;2023-07-08T09:30:30;4.45;;;4.05;;
14092;SDS011;7123;49.468;10.992;2023-07-08T09:32:57;4.63;;;4.22;;
14092;SDS011;7123;49.468;10.992;2023-07-08T09:35:28;4.47;;;4.10;;
14092;SDS011;7123;49.468;10.992;2023-07-08T09:38:06;4.28;;;3.92;;
14092;SDS011;7123;49.468;10.992;2023-07-08T09:40:34;8.15;;;4.03;;
14092;SDS011;7123;49.468;10.992;2023-07-08T09:43:02;4.13;;;3.72;;
14092;SDS011;7123;49.468;10.992;2023-07-08T09:45:46;4.65;;;4.28;;
14092;SDS011;7123;49.468;10.992;2023-07-08T09:48:15;5.13;;;4.30;;
14092;SDS011;7123;49.468;10.992;2023-07-08T09:50:51;4.28;;;3.97;;
14092;SDS011;7123;49.468;10.992;2023-07-08T09:53:19;4.93;;;4.18;;
14092;SDS011;7123;49.468;10.992;2023-07-08T09:55:47;4.38;;;3.97;;
14092;SDS011;7123;49.468;10.992;2023-07-08T09:58:21;4.85;;;3.90;;
14092;SDS011;7123;49.468;10.992;2023-07-08T10:01:13;4.15;;;3.75;;
14092;SDS011;7123;49.468;10.992;2023-07-08T10:03:46;4.55;;;4.10;;
14092;SDS011;7123;49.468;10.992;2023-07-08T10:06:16;4.20;;;3.80;;
14092;SDS011;7123;49.468;10.992;2023-07-08T10:08:46;4.63;;;4.22;;
14092;SDS011;7123;49.468;10.992;2023-07-08T10:11:22;5.05;;;3.70;;
14092;SDS011;7123;49.468;10.992;2023-07-08T10:14:05;4.55;;;4.15;;
14092;SDS011;7123;49.468;10.992;2023-07-08T10:16:40;4.30;;;4.00;;
14092;SDS011;7123;49.468;10.992;2023-07-08T10:19:15;3.95;;;3.65;;
14092;SDS011;7123;49.468;10.992;2023-07-08T10:27:46;4.50;;;3.72;;
14092;SDS011;7123;49.468;10.992;2023-07-08T10:32:51;5.45;;;3.72;;
14092;SDS011;7123;49.468;10.992;2023-07-08T10:35:35;6.95;;;3.80;;
14092;SDS011;7123;49.468;10.992;2023-07-08T10:41:04;4.35;;;3.75;;
14092;SDS011;7123;49.468;10.992;2023-07-08T10:43:58;4.30;;;3.90;;
14092;SDS011;7123;49.468;10.992;2023-07-08T10:49:28;4.00;;;3.70;;
14092;SDS011;7123;49.468;10.992;2023-07-08T10:55:17;6.57;;;4.40;;
14092;SDS011;7123;49.468;10.992;2023-07-08T11:06:50;4.60;;;3.72;;
14092;SDS011;7123;49.468;10.992;2023-07-08T11:10:06;5.13;;;4.40;;
14092;SDS011;7123;49.468;10.992;2023-07-08T11:12:36;4.70;;;4.13;;
14092;SDS011;7123;49.468;10.992;2023-07-08T11:15:13;4.40;;;4.00;;
14092;SDS011;7123;49.468;10.992;2023-07-08T11:17:50;4.72;;;4.30;;
14092;SDS011;7123;49.468;10.992;2023-07-08T11:20:38;6.25;;;3.58;;
14092;SDS011;7123;49.468;10.992;2023-07-08T11:25:50;5.10;;;4.60;;
14092;SDS011;7123;49.468;10.992;2023-07-08T11:28:32;4.30;;;4.00;;
14092;SDS011;7123;49.468;10.992;2023-07-08T11:30:59;4.30;;;3.97;;
14092;SDS011;7123;49.468;10.992;2023-07-08T11:33:28;5.10;;;4.60;;
14092;SDS011;7123;49.468;10.992;2023-07-08T11:36:00;4.85;;;4.35;;
14092;SDS011;7123;49.468;10.992;2023-07-08T11:38:31;4.43;;;4.13;;
14092;SDS011;7123;49.468;10.992;2023-07-08T11:41:01;4.60;;;4.15;;
14092;SDS011;7123;49.468;10.992;2023-07-08T11:43:34;5.13;;;3.88;;
14092;SDS011;7123;49.468;10.992;2023-07-08T11:46:11;5.68;;;4.03;;
14092;SDS011;7123;49.468;10.992;2023-07-08T11:48:50;4.70;;;4.10;;
14092;SDS011;7123;49.468;10.992;2023-07-08T11:51:19;4.40;;;4.03;;
14092;SDS011;7123;49.468;10.992;2023-07-08T11:56:28;4.43;;;4.07;;
14092;SDS011;7123;49.468;10.992;2023-07-08T12:01:48;6.13;;;4.63;;
14092;SDS011;7123;49.468;10.992;2023-07-08T12:04:26;4.40;;;4.00;;
14092;SDS011;7123;49.468;10.992;2023-07-08T12:09:47;4.68;;;4.28;;
14092;SDS011;7123;49.468;10.992;2023-07-08T12:12:28;5.68;;;4.32;;
14092;SDS011;7123;49.468;10.992;2023-07-08T12:15:00;6.53;;;4.53;;
14092;SDS011;7123;49.468;10.992;2023-07-08T12:17:52;6.47;;;4.43;;
14092;SDS011;7123;49.468;10.992;2023-07-08T12:22:50;4.97;;;4.53;;
14092;SDS011;7123;49.468;10.992;2023-07-08T12:25:20;5.13;;;4.25;;
14092;SDS011;7123;49.468;10.992;2023-07-08T12:27:50;4.57;;;4.18;;
14092;SDS011;7123;49.468;10.992;2023-07-08T12:30:17;6.28;;;4.55;;
14092;SDS011;7123;49.468;10.992;2023-07-08T12:32:44;5.47;;;4.13;;
14092;SDS011;7123;49.468;10.992;2023-07-08T12:35:21;4.65;;;4.25;;
14092;SDS011;7123;49.468;10.992;2023-07-08T12:37:50;4.60;;;4.20;;
14092;SDS011;7123;49.468;10.992;2023-07-08T12:40:18;4.70;;;4.30;;
14092;SDS011;7123;49.468;10.992;2023-07-08T12:42:47;4.50;;;4.10;;
14092;SDS011;7123;49.468;10.992;2023-07-08T12:45:16;4.43;;;4.10;;
14092;SDS011;7123;49.468;10.992;2023-07-08T12:47:45;4.75;;;4.35;;
14092;SDS011;7123;49.468;10.992;2023-07-08T12:50:13;4.55;;;4.15;;
14092;SDS011;7123;49.468;10.992;2023-07-08T12:52:42;6.13;;;4.28;;
14092;SDS011;7123;49.468;10.992;2023-07-08T12:55:11;5.45;;;4.55;;
14092;SDS011;7123;49.468;10.992;2023-07-08T12:57:40;5.07;;;4.65;;
14092;SDS011;7123;49.468;10.992;2023-07-08T13:00:15;4.68;;;4.38;;
14092;SDS011;7123;49.468;10.992;2023-07-08T13:02:52;4.75;;;4.35;;
14092;SDS011;7123;49.468;10.992;2023-07-08T13:05:29;4.70;;;4.30;;
14092;SDS011;7123;49.468;10.992;2023-07-08T13:07:56;6.30;;;4.53;;
14092;SDS011;7123;49.468;10.992;2023-07-08T13:10:25;5.25;;;4.30;;
14092;SDS011;7123;49.468;10.992;2023-07-08T13:12:56;4.43;;;4.10;;
14092;SDS011;7123;49.468;10.992;2023-07-08T13:15:31;5.57;;;4.32;;
14092;SDS011;7123;49.468;10.992;2023-07-08T13:18:02;5.15;;;4.57;;
14092;SDS011;7123;49.468;10.992;2023-07-08T13:20:29;5.18;;;4.70;;
14092;SDS011;7123;49.468;10.992;2023-07-08T13:22:59;4.88;;;4.30;;
14092;SDS011;7123;49.468;10.992;2023-07-08T13:25:29;8.40;;;4.85;;
14092;SDS011;7123;49.468;10.992;2023-07-08T13:27:58;4.78;;;4.38;;
14092;SDS011;7123;49.468;10.992;2023-07-08T13:30:27;4.85;;;4.45;;
14092;SDS011;7123;49.468;10.992;2023-07-08T13:32:58;4.93;;;4.53;;
14092;SDS011;7123;49.468;10.992;2023-07-08T13:35:36;5.03;;;4.63;;
14092;SDS011;7123;49.468;10.992;2023-07-08T13:38:05;4.78;;;4.30;;
14092;SDS011;7123;49.468;10.992;2023-07-08T13:40:40;5.03;;;4.63;;
14092;SDS011;7123;49.468;10.992;2023-07-08T13:43:11;4.30;;;4.00;;
14092;SDS011;7123;49.468;10.992;2023-07-08T13:45:42;5.70;;;4.07;;
14092;SDS011;7123;49.468;10.992;2023-07-08T13:48:18;4.63;;;4.13;;
14092;SDS011;7123;49.468;10.992;2023-07-08T13:50:50;4.97;;;4.57;;
14092;SDS011;7123;49.468;10.992;2023-07-08T13:53:25;5.32;;;4.57;;
14092;SDS011;7123;49.468;10.992;2023-07-08T13:56:14;5.13;;;4.63;;
14092;SDS011;7123;49.468;10.992;2023-07-08T13:58:43;4.45;;;4.15;;
14092;SDS011;7123;49.468;10.992;2023-07-08T14:01:16;4.97;;;4.18;;
14092;SDS011;7123;49.468;10.992;2023-07-08T14:03:48;8.60;;;4.40;;
14092;SDS011;7123;49.468;10.992;2023-07-08T14:06:17;4.50;;;4.10;;
14092;SDS011;7123;49.468;10.992;2023-07-08T14:08:46;5.10;;;4.38;;
14092;SDS011;7123;49.468;10.992;2023-07-08T14:11:13;4.35;;;4.05;;
14092;SDS011;7123;49.468;10.992;2023-07-08T14:13:40;4.65;;;4.32;;
14092;SDS011;7123;49.468;10.992;2023-07-08T14:16:10;5.20;;;4.68;;
14092;SDS011;7123;49.468;10.992;2023-07-08T14:18:54;5.20;;;4.70;;
14092;SDS011;7123;49.468;10.992;2023-07-08T14:21:23;6.10;;;4.72;;
14092;SDS011;7123;49.468;10.992;2023-07-08T14:23:50;5.15;;;4.40;;
14092;SDS011;7123;49.468;10.992;2023-07-08T14:26:17;5.20;;;4.50;;
14092;SDS011;7123;49.468;10.992;2023-07-08T14:28:44;6.03;;;4.88;;
14092;SDS011;7123;49.468;10.992;2023-07-08T14:31:11;5.00;;;4.20;;
14092;SDS011;7123;49.468;10.992;2023-07-08T14:33:40;5.28;;;4.20;;
14092;SDS011;7123;49.468;10.992;2023-07-08T14:36:08;5.30;;;4.60;;
14092;SDS011;7123;49.468;10.992;2023-07-08T14:38:36;4.40;;;3.95;;
14092;SDS011;7123;49.468;10.992;2023-07-08T14:41:03;5.75;;;4.80;;
14092;SDS011;7123;49.468;10.992;2023-07-08T14:43:31;4.85;;;4.32;;
14092;SDS011;7123;49.468;10.992;2023-07-08T14:46:00;4.65;;;4.25;;
14092;SDS011;7123;49.468;10.992;2023-07-08T14:48:30;8.07;;;4.57;;
14092;SDS011;7123;49.468;10.992;2023-07-08T14:50:58;5.80;;;4.70;;
14092;SDS011;7123;49.468;10.992;2023-07-08T14:53:26;5.95;;;4.68;;
14092;SDS011;7123;49.468;10.992;2023-07-08T14:55:56;4.97;;;4.38;;
14092;SDS011;7123;49.468;10.992;2023-07-08T14:58:30;4.97;;;4.40;;
14092;SDS011;7123;49.468;10.992;2023-07-08T15:01:00;4.88;;;4.40;;
14092;SDS011;7123;49.468;10.992;2023-07-08T15:03:34;5.30;;;4.80;;
14092;SDS011;7123;49.468;10.992;2023-07-08T15:06:01;5.05;;;4.65;;
14092;SDS011;7123;49.468;10.992;2023-07-08T15:08:27;15.07;;;4.80;;
14092;SDS011;7123;49.468;10.992;2023-07-08T15:10:54;6.22;;;4.75;;
14092;SDS011;7123;49.468;10.992;2023-07-08T15:13:21;5.28;;;4.35;;
14092;SDS011;7123;49.468;10.992;2023-07-08T15:15:52;6.57;;;4.40;;
14092;SDS011;7123;49.468;10.992;2023-07-08T15:18:19;4.72;;;4.32;;
14092;SDS011;7123;49.468;10.992;2023-07-08T15:20:46;4.80;;;4.30;;
14092;SDS011;7123;49.468;10.992;2023-07-08T15:23:13;4.85;;;4.45;;
14092;SDS011;7123;49.468;10.992;2023-07-08T15:25:40;5.38;;;4.65;;
14092;SDS011;7123;49.468;10.992;2023-07-08T15:28:14;7.65;;;5.05;;
14092;SDS011;7123;49.468;10.992;2023-07-08T15:30:46;6.35;;;4.45;;
14092;SDS011;7123;49.468;10.992;2023-07-08T15:33:14;5.38;;;4.88;;
14092;SDS011;7123;49.468;10.992;2023-07-08T15:35:42;5.43;;;5.00;;
14092;SDS011;7123;49.468;10.992;2023-07-08T15:38:10;5.35;;;4.82;;
14092;SDS011;7123;49.468;10.992;2023-07-08T15:40:37;5.68;;;5.07;;
14092;SDS011;7123;49.468;10.992;2023-07-08T15:43:05;5.15;;;4.72;;
14092;SDS011;7123;49.468;10.992;2023-07-08T15:45:38;5.65;;;5.03;;
14092;SDS011;7123;49.468;10.992;2023-07-08T15:48:16;5.22;;;4.72;;
14092;SDS011;7123;49.468;10.992;2023-07-08T15:50:44;5.03;;;4.50;;
14092;SDS011;7123;49.468;10.992;2023-07-08T15:53:13;6.45;;;4.60;;
14092;SDS011;7123;49.468;10.992;2023-07-08T15:55:42;5.80;;;5.20;;